sensor_id;sensor_type;location;lat;lon;timestamp;P1;durP1;ratioP1;P2;durP2;ratioP2
51883;SDS011;37915;53.254;6.598;2023-07-09T00:00:11;9.23;;;6.57;;
51883;SDS011;37915;53.254;6.598;2023-07-09T00:02:39;7.75;;;5.68;;
51883;SDS011;37915;53.254;6.598;2023-07-09T00:05:05;9.73;;;5.65;;
51883;SDS011;37915;53.254;6.598;2023-07-09T00:07:35;10.98;;;6.28;;
51883;SDS011;37915;53.254;6.598;2023-07-09T00:10:01;10.65;;;6.38;;
51883;SDS011;37915;53.254;6.598;2023-07-09T00:12:27;9.55;;;6.30;;
51883;SDS011;37915;53.254;6.598;2023-07-09T00:14:52;8.63;;;6.00;;
51883;SDS011;37915;53.254;6.598;2023-07-09T00:17:26;9.52;;;6.97;;
51883;SDS011;37915;53.254;6.598;2023-07-09T00:19:54;10.32;;;6.70;;
51883;SDS011;37915;53.254;6.598;2023-07-09T00:22:20;9.30;;;5.53;;
51883;SDS011;37915;53.254;6.598;2023-07-09T00:24:47;9.00;;;6.20;;
51883;SDS011;37915;53.254;6.598;2023-07-09T00:27:16;11.55;;;6.00;;
51883;SDS011;37915;53.254;6.598;2023-07-09T00:29:44;9.85;;;6.82;;
51883;SDS011;37915;53.254;6.598;2023-07-09T00:32:14;9.63;;;6.43;;
51883;SDS011;37915;53.254;6.598;2023-07-09T00:34:44;7.82;;;5.55;;
51883;SDS011;37915;53.254;6.598;2023-07-09T00:37:19;11.05;;;6.32;;
51883;SDS011;37915;53.254;6.598;2023-07-09T00:39:47;11.02;;;6.93;;
51883;SDS011;37915;53.254;6.598;2023-07-09T00:42:21;8.45;;;6.35;;
51883;SDS011;37915;53.254;6.598;2023-07-09T00:44:52;9.32;;;5.75;;
51883;SDS011;37915;53.254;6.598;2023-07-09T00:47:39;11.43;;;5.90;;
51883;SDS011;37915;53.254;6.598;2023-07-09T00:50:31;8.18;;;5.85;;
51883;SDS011;37915;53.254;6.598;2023-07-09T00:53:02;8.75;;;6.05;;
51883;SDS011;37915;53.254;6.598;2023-07-09T00:56:09;10.80;;;7.38;;
51883;SDS011;37915;53.254;6.598;2023-07-09T00:58:35;8.45;;;6.05;;
51883;SDS011;37915;53.254;6.598;2023-07-09T01:01:04;9.38;;;6.40;;
51883;SDS011;37915;53.254;6.598;2023-07-09T01:03:40;9.13;;;5.95;;
51883;SDS011;37915;53.254;6.598;2023-07-09T01:06:10;9.57;;;6.43;;
51883;SDS011;37915;53.254;6.598;2023-07-09T01:08:38;9.20;;;6.50;;
51883;SDS011;37915;53.254;6.598;2023-07-09T01:11:18;10.90;;;7.25;;
51883;SDS011;37915;53.254;6.598;2023-07-09T01:13:49;10.40;;;6.57;;
51883;SDS011;37915;53.254;6.598;2023-07-09T01:16:20;13.32;;;6.32;;
51883;SDS011;37915;53.254;6.598;2023-07-09T01:18:49;10.40;;;7.00;;
51883;SDS011;37915;53.254;6.598;2023-07-09T01:21:15;9.60;;;6.78;;
51883;SDS011;37915;53.254;6.598;2023-07-09T01:23:42;13.15;;;6.35;;
51883;SDS011;37915;53.254;6.598;2023-07-09T01:26:17;9.70;;;6.60;;
51883;SDS011;37915;53.254;6.598;2023-07-09T01:28:44;9.25;;;7.00;;
51883;SDS011;37915;53.254;6.598;2023-07-09T01:31:11;10.93;;;6.97;;
51883;SDS011;37915;53.254;6.598;2023-07-09T01:33:38;8.98;;;6.85;;
51883;SDS011;37915;53.254;6.598;2023-07-09T01:36:08;10.43;;;7.68;;
51883;SDS011;37915;53.254;6.598;2023-07-09T01:38:35;10.13;;;6.90;;
51883;SDS011;37915;53.254;6.598;2023-07-09T01:41:01;12.88;;;7.30;;
51883;SDS011;37915;53.254;6.598;2023-07-09T01:43:27;10.80;;;6.78;;
51883;SDS011;37915;53.254;6.598;2023-07-09T01:45:54;9.70;;;7.00;;
51883;SDS011;37915;53.254;6.598;2023-07-09T01:48:22;8.27;;;6.45;;
51883;SDS011;37915;53.254;6.598;2023-07-09T01:50:49;10.40;;;7.10;;
51883;SDS011;37915;53.254;6.598;2023-07-09T01:53:17;10.10;;;7.43;;
51883;SDS011;37915;53.254;6.598;2023-07-09T01:55:44;9.88;;;6.75;;
51883;SDS011;37915;53.254;6.598;2023-07-09T01:58:10;8.73;;;6.28;;
51883;SDS011;37915;53.254;6.598;2023-07-09T02:00:36;8.30;;;6.53;;
51883;SDS011;37915;53.254;6.598;2023-07-09T02:03:03;12.35;;;7.45;;
51883;SDS011;37915;53.254;6.598;2023-07-09T02:05:33;8.23;;;6.53;;
51883;SDS011;37915;53.254;6.598;2023-07-09T02:08:01;9.40;;;6.55;;
51883;SDS011;37915;53.254;6.598;2023-07-09T02:10:27;13.73;;;7.38;;
51883;SDS011;37915;53.254;6.598;2023-07-09T02:12:52;12.23;;;7.13;;
51883;SDS011;37915;53.254;6.598;2023-07-09T02:15:18;13.50;;;7.65;;
51883;SDS011;37915;53.254;6.598;2023-07-09T02:17:44;11.52;;;6.45;;
51883;SDS011;37915;53.254;6.598;2023-07-09T02:20:10;9.98;;;7.07;;
51883;SDS011;37915;53.254;6.598;2023-07-09T02:22:37;9.52;;;7.53;;
51883;SDS011;37915;53.254;6.598;2023-07-09T02:25:04;11.35;;;7.30;;
51883;SDS011;37915;53.254;6.598;2023-07-09T02:27:31;11.15;;;7.35;;
51883;SDS011;37915;53.254;6.598;2023-07-09T02:29:57;10.85;;;7.30;;
51883;SDS011;37915;53.254;6.598;2023-07-09T02:32:24;8.70;;;7.05;;
51883;SDS011;37915;53.254;6.598;2023-07-09T02:34:52;11.13;;;7.85;;
51883;SDS011;37915;53.254;6.598;2023-07-09T02:37:19;11.40;;;7.55;;
51883;SDS011;37915;53.254;6.598;2023-07-09T02:39:46;12.80;;;9.13;;
51883;SDS011;37915;53.254;6.598;2023-07-09T02:42:13;11.45;;;7.75;;
51883;SDS011;37915;53.254;6.598;2023-07-09T02:44:41;9.55;;;7.50;;
51883;SDS011;37915;53.254;6.598;2023-07-09T02:47:07;10.35;;;7.70;;
51883;SDS011;37915;53.254;6.598;2023-07-09T02:49:34;10.52;;;7.90;;
51883;SDS011;37915;53.254;6.598;2023-07-09T02:51:59;10.38;;;7.88;;
51883;SDS011;37915;53.254;6.598;2023-07-09T02:54:25;16.75;;;8.73;;
51883;SDS011;37915;53.254;6.598;2023-07-09T02:56:51;9.68;;;7.68;;
51883;SDS011;37915;53.254;6.598;2023-07-09T02:59:17;14.00;;;7.85;;
51883;SDS011;37915;53.254;6.598;2023-07-09T03:01:43;10.68;;;7.47;;
51883;SDS011;37915;53.254;6.598;2023-07-09T03:04:09;14.27;;;7.97;;
51883;SDS011;37915;53.254;6.598;2023-07-09T03:06:35;13.48;;;7.95;;
51883;SDS011;37915;53.254;6.598;2023-07-09T03:09:02;10.63;;;8.00;;
51883;SDS011;37915;53.254;6.598;2023-07-09T03:11:29;14.00;;;8.15;;
51883;SDS011;37915;53.254;6.598;2023-07-09T03:13:56;10.68;;;7.72;;
51883;SDS011;37915;53.254;6.598;2023-07-09T03:16:23;13.45;;;8.02;;
51883;SDS011;37915;53.254;6.598;2023-07-09T03:18:50;9.90;;;7.82;;
51883;SDS011;37915;53.254;6.598;2023-07-09T03:21:16;12.73;;;7.60;;
51883;SDS011;37915;53.254;6.598;2023-07-09T03:23:42;12.52;;;8.50;;
51883;SDS011;37915;53.254;6.598;2023-07-09T03:26:07;11.93;;;8.27;;
51883;SDS011;37915;53.254;6.598;2023-07-09T03:28:33;13.38;;;7.53;;
51883;SDS011;37915;53.254;6.598;2023-07-09T03:30:59;14.68;;;8.43;;
51883;SDS011;37915;53.254;6.598;2023-07-09T03:33:25;13.15;;;8.05;;
51883;SDS011;37915;53.254;6.598;2023-07-09T03:35:51;11.85;;;7.93;;
51883;SDS011;37915;53.254;6.598;2023-07-09T03:38:18;13.30;;;7.95;;
51883;SDS011;37915;53.254;6.598;2023-07-09T03:40:44;10.77;;;7.53;;
51883;SDS011;37915;53.254;6.598;2023-07-09T03:43:10;10.38;;;7.13;;
51883;SDS011;37915;53.254;6.598;2023-07-09T03:45:36;14.63;;;7.65;;
51883;SDS011;37915;53.254;6.598;2023-07-09T03:48:03;11.45;;;7.32;;
51883;SDS011;37915;53.254;6.598;2023-07-09T03:50:30;13.18;;;7.45;;
51883;SDS011;37915;53.254;6.598;2023-07-09T03:52:56;15.85;;;7.95;;
51883;SDS011;37915;53.254;6.598;2023-07-09T03:55:21;11.88;;;6.75;;
51883;SDS011;37915;53.254;6.598;2023-07-09T03:57:47;10.13;;;7.43;;
51883;SDS011;37915;53.254;6.598;2023-07-09T04:00:13;14.98;;;7.80;;
51883;SDS011;37915;53.254;6.598;2023-07-09T04:02:39;12.23;;;7.93;;
51883;SDS011;37915;53.254;6.598;2023-07-09T04:05:06;10.70;;;7.75;;
51883;SDS011;37915;53.254;6.598;2023-07-09T04:07:33;11.35;;;7.32;;
51883;SDS011;37915;53.254;6.598;2023-07-09T04:10:00;12.48;;;7.93;;
51883;SDS011;37915;53.254;6.598;2023-07-09T04:12:26;12.25;;;7.28;;
51883;SDS011;37915;53.254;6.598;2023-07-09T04:14:51;11.30;;;8.00;;
51883;SDS011;37915;53.254;6.598;2023-07-09T04:17:17;11.32;;;7.00;;
51883;SDS011;37915;53.254;6.598;2023-07-09T04:19:43;16.17;;;7.82;;
51883;SDS011;37915;53.254;6.598;2023-07-09T04:22:10;11.60;;;7.70;;
51883;SDS011;37915;53.254;6.598;2023-07-09T04:24:36;10.68;;;7.70;;
51883;SDS011;37915;53.254;6.598;2023-07-09T04:27:02;15.30;;;8.32;;
51883;SDS011;37915;53.254;6.598;2023-07-09T04:29:31;14.05;;;7.80;;
51883;SDS011;37915;53.254;6.598;2023-07-09T04:32:00;11.48;;;7.88;;
51883;SDS011;37915;53.254;6.598;2023-07-09T04:34:27;10.07;;;7.03;;
51883;SDS011;37915;53.254;6.598;2023-07-09T04:36:53;12.75;;;7.80;;
51883;SDS011;37915;53.254;6.598;2023-07-09T04:39:18;11.98;;;7.40;;
51883;SDS011;37915;53.254;6.598;2023-07-09T04:41:44;10.30;;;7.28;;
51883;SDS011;37915;53.254;6.598;2023-07-09T04:44:10;10.35;;;7.30;;
51883;SDS011;37915;53.254;6.598;2023-07-09T04:46:35;10.10;;;6.70;;
51883;SDS011;37915;53.254;6.598;2023-07-09T04:49:03;11.48;;;7.43;;
51883;SDS011;37915;53.254;6.598;2023-07-09T04:51:29;9.45;;;7.10;;
51883;SDS011;37915;53.254;6.598;2023-07-09T04:53:54;12.00;;;7.65;;
51883;SDS011;37915;53.254;6.598;2023-07-09T04:56:20;10.00;;;7.28;;
51883;SDS011;37915;53.254;6.598;2023-07-09T04:58:46;11.18;;;6.68;;
51883;SDS011;37915;53.254;6.598;2023-07-09T05:01:11;10.30;;;6.85;;
51883;SDS011;37915;53.254;6.598;2023-07-09T05:03:37;9.32;;;6.82;;
51883;SDS011;37915;53.254;6.598;2023-07-09T05:06:03;11.23;;;7.38;;
51883;SDS011;37915;53.254;6.598;2023-07-09T05:08:29;9.48;;;6.57;;
51883;SDS011;37915;53.254;6.598;2023-07-09T05:10:56;12.65;;;7.32;;
51883;SDS011;37915;53.254;6.598;2023-07-09T05:13:23;11.40;;;6.90;;
51883;SDS011;37915;53.254;6.598;2023-07-09T05:15:49;10.82;;;7.28;;
51883;SDS011;37915;53.254;6.598;2023-07-09T05:18:15;11.45;;;6.32;;
51883;SDS011;37915;53.254;6.598;2023-07-09T05:20:42;10.68;;;7.03;;
51883;SDS011;37915;53.254;6.598;2023-07-09T05:23:09;8.82;;;6.53;;
51883;SDS011;37915;53.254;6.598;2023-07-09T05:25:35;11.90;;;7.50;;
51883;SDS011;37915;53.254;6.598;2023-07-09T05:28:01;9.57;;;6.70;;
51883;SDS011;37915;53.254;6.598;2023-07-09T05:30:28;10.77;;;6.55;;
51883;SDS011;37915;53.254;6.598;2023-07-09T05:32:53;11.35;;;7.20;;
51883;SDS011;37915;53.254;6.598;2023-07-09T05:35:22;11.48;;;6.63;;
51883;SDS011;37915;53.254;6.598;2023-07-09T05:37:48;13.77;;;6.75;;
51883;SDS011;37915;53.254;6.598;2023-07-09T05:40:14;12.93;;;7.50;;
51883;SDS011;37915;53.254;6.598;2023-07-09T05:42:40;9.63;;;6.72;;
51883;SDS011;37915;53.254;6.598;2023-07-09T05:45:05;10.25;;;7.00;;
51883;SDS011;37915;53.254;6.598;2023-07-09T05:47:32;9.38;;;6.68;;
51883;SDS011;37915;53.254;6.598;2023-07-09T05:49:57;9.75;;;6.53;;
51883;SDS011;37915;53.254;6.598;2023-07-09T05:52:23;10.70;;;6.93;;
51883;SDS011;37915;53.254;6.598;2023-07-09T05:54:49;10.20;;;6.97;;
51883;SDS011;37915;53.254;6.598;2023-07-09T05:57:16;10.68;;;6.90;;
51883;SDS011;37915;53.254;6.598;2023-07-09T05:59:42;9.85;;;6.93;;
51883;SDS011;37915;53.254;6.598;2023-07-09T06:02:11;11.82;;;7.82;;
51883;SDS011;37915;53.254;6.598;2023-07-09T06:04:38;10.60;;;7.40;;
51883;SDS011;37915;53.254;6.598;2023-07-09T06:07:04;9.15;;;6.90;;
51883;SDS011;37915;53.254;6.598;2023-07-09T06:09:30;10.63;;;7.03;;
51883;SDS011;37915;53.254;6.598;2023-07-09T06:11:56;9.88;;;7.10;;
51883;SDS011;37915;53.254;6.598;2023-07-09T06:14:22;10.77;;;7.55;;
51883;SDS011;37915;53.254;6.598;2023-07-09T06:16:49;10.05;;;7.05;;
51883;SDS011;37915;53.254;6.598;2023-07-09T06:19:14;9.18;;;7.05;;
51883;SDS011;37915;53.254;6.598;2023-07-09T06:21:40;12.88;;;8.10;;
51883;SDS011;37915;53.254;6.598;2023-07-09T06:24:06;11.70;;;7.50;;
51883;SDS011;37915;53.254;6.598;2023-07-09T06:26:33;9.30;;;6.78;;
51883;SDS011;37915;53.254;6.598;2023-07-09T06:29:03;9.95;;;7.30;;
51883;SDS011;37915;53.254;6.598;2023-07-09T06:31:30;12.88;;;7.38;;
51883;SDS011;37915;53.254;6.598;2023-07-09T06:33:55;13.05;;;7.53;;
51883;SDS011;37915;53.254;6.598;2023-07-09T06:36:21;10.77;;;7.55;;
51883;SDS011;37915;53.254;6.598;2023-07-09T06:38:47;11.60;;;7.38;;
51883;SDS011;37915;53.254;6.598;2023-07-09T06:41:13;10.88;;;7.38;;
51883;SDS011;37915;53.254;6.598;2023-07-09T06:43:40;11.65;;;7.32;;
51883;SDS011;37915;53.254;6.598;2023-07-09T06:46:07;11.07;;;7.20;;
51883;SDS011;37915;53.254;6.598;2023-07-09T06:48:35;9.48;;;6.97;;
51883;SDS011;37915;53.254;6.598;2023-07-09T06:51:01;9.45;;;6.38;;
51883;SDS011;37915;53.254;6.598;2023-07-09T06:53:27;10.88;;;6.82;;
51883;SDS011;37915;53.254;6.598;2023-07-09T06:55:54;9.60;;;6.80;;
51883;SDS011;37915;53.254;6.598;2023-07-09T06:58:23;11.35;;;6.78;;
51883;SDS011;37915;53.254;6.598;2023-07-09T07:00:50;8.27;;;6.78;;
51883;SDS011;37915;53.254;6.598;2023-07-09T07:03:17;13.75;;;7.15;;
51883;SDS011;37915;53.254;6.598;2023-07-09T07:05:44;9.05;;;6.85;;
51883;SDS011;37915;53.254;6.598;2023-07-09T07:08:10;9.73;;;6.85;;
51883;SDS011;37915;53.254;6.598;2023-07-09T07:10:37;10.20;;;6.60;;
51883;SDS011;37915;53.254;6.598;2023-07-09T07:13:03;10.07;;;6.53;;
51883;SDS011;37915;53.254;6.598;2023-07-09T07:15:29;9.30;;;6.70;;
51883;SDS011;37915;53.254;6.598;2023-07-09T07:17:54;11.18;;;6.72;;
51883;SDS011;37915;53.254;6.598;2023-07-09T07:20:20;11.60;;;7.22;;
51883;SDS011;37915;53.254;6.598;2023-07-09T07:22:46;9.88;;;7.18;;
51883;SDS011;37915;53.254;6.598;2023-07-09T07:25:12;9.05;;;6.90;;
51883;SDS011;37915;53.254;6.598;2023-07-09T07:27:38;9.00;;;6.25;;
51883;SDS011;37915;53.254;6.598;2023-07-09T07:30:04;11.60;;;6.78;;
51883;SDS011;37915;53.254;6.598;2023-07-09T07:32:34;10.85;;;6.95;;
51883;SDS011;37915;53.254;6.598;2023-07-09T07:35:02;9.80;;;6.45;;
51883;SDS011;37915;53.254;6.598;2023-07-09T07:37:27;10.85;;;6.95;;
51883;SDS011;37915;53.254;6.598;2023-07-09T07:39:53;11.43;;;7.13;;
51883;SDS011;37915;53.254;6.598;2023-07-09T07:42:19;10.30;;;6.55;;
51883;SDS011;37915;53.254;6.598;2023-07-09T07:44:44;10.32;;;6.78;;
51883;SDS011;37915;53.254;6.598;2023-07-09T07:47:10;8.20;;;5.97;;
51883;SDS011;37915;53.254;6.598;2023-07-09T07:49:37;12.30;;;7.63;;
51883;SDS011;37915;53.254;6.598;2023-07-09T07:52:03;8.45;;;6.00;;
51883;SDS011;37915;53.254;6.598;2023-07-09T07:54:29;9.02;;;6.93;;
51883;SDS011;37915;53.254;6.598;2023-07-09T07:56:57;9.50;;;5.63;;
51883;SDS011;37915;53.254;6.598;2023-07-09T07:59:23;11.23;;;7.03;;
51883;SDS011;37915;53.254;6.598;2023-07-09T08:01:49;9.32;;;6.35;;
51883;SDS011;37915;53.254;6.598;2023-07-09T08:04:15;11.80;;;6.25;;
51883;SDS011;37915;53.254;6.598;2023-07-09T08:06:40;8.43;;;5.57;;
51883;SDS011;37915;53.254;6.598;2023-07-09T08:09:07;12.05;;;6.55;;
51883;SDS011;37915;53.254;6.598;2023-07-09T08:11:32;8.48;;;6.10;;
51883;SDS011;37915;53.254;6.598;2023-07-09T08:13:58;14.98;;;7.18;;
51883;SDS011;37915;53.254;6.598;2023-07-09T08:16:24;12.35;;;6.22;;
51883;SDS011;37915;53.254;6.598;2023-07-09T08:18:50;10.77;;;5.95;;
51883;SDS011;37915;53.254;6.598;2023-07-09T08:21:17;12.50;;;6.57;;
51883;SDS011;37915;53.254;6.598;2023-07-09T08:23:43;10.30;;;6.50;;
51883;SDS011;37915;53.254;6.598;2023-07-09T08:26:09;12.43;;;6.88;;
51883;SDS011;37915;53.254;6.598;2023-07-09T08:28:35;11.15;;;7.45;;
51883;SDS011;37915;53.254;6.598;2023-07-09T08:31:01;14.73;;;6.82;;
51883;SDS011;37915;53.254;6.598;2023-07-09T08:33:27;12.88;;;7.50;;
51883;SDS011;37915;53.254;6.598;2023-07-09T08:35:53;8.02;;;5.70;;
51883;SDS011;37915;53.254;6.598;2023-07-09T08:38:20;11.32;;;6.82;;
51883;SDS011;37915;53.254;6.598;2023-07-09T08:40:59;9.93;;;6.22;;
51883;SDS011;37915;53.254;6.598;2023-07-09T08:46:37;13.10;;;7.68;;
51883;SDS011;37915;53.254;6.598;2023-07-09T08:49:23;11.05;;;7.00;;
51883;SDS011;37915;53.254;6.598;2023-07-09T08:52:16;10.48;;;7.13;;
51883;SDS011;37915;53.254;6.598;2023-07-09T08:54:50;11.70;;;7.93;;
51883;SDS011;37915;53.254;6.598;2023-07-09T08:57:21;14.10;;;7.95;;
51883;SDS011;37915;53.254;6.598;2023-07-09T08:59:54;13.18;;;7.70;;
51883;SDS011;37915;53.254;6.598;2023-07-09T09:02:30;12.65;;;7.70;;
51883;SDS011;37915;53.254;6.598;2023-07-09T09:05:02;14.02;;;7.47;;
51883;SDS011;37915;53.254;6.598;2023-07-09T09:07:43;12.35;;;7.65;;
51883;SDS011;37915;53.254;6.598;2023-07-09T09:10:53;14.40;;;9.10;;
51883;SDS011;37915;53.254;6.598;2023-07-09T09:13:11;13.73;;;8.00;;
51883;SDS011;37915;53.254;6.598;2023-07-09T09:15:40;10.45;;;7.65;;
51883;SDS011;37915;53.254;6.598;2023-07-09T09:18:41;14.55;;;8.63;;
51883;SDS011;37915;53.254;6.598;2023-07-09T09:23:39;16.25;;;9.57;;
51883;SDS011;37915;53.254;6.598;2023-07-09T09:26:14;15.32;;;9.68;;
51883;SDS011;37915;53.254;6.598;2023-07-09T09:28:43;16.10;;;9.68;;
51883;SDS011;37915;53.254;6.598;2023-07-09T09:31:11;13.65;;;8.50;;
51883;SDS011;37915;53.254;6.598;2023-07-09T09:33:41;13.32;;;9.60;;
51883;SDS011;37915;53.254;6.598;2023-07-09T09:36:22;14.68;;;10.93;;
51883;SDS011;37915;53.254;6.598;2023-07-09T09:38:49;14.55;;;10.48;;
51883;SDS011;37915;53.254;6.598;2023-07-09T09:41:17;13.88;;;10.95;;
51883;SDS011;37915;53.254;6.598;2023-07-09T09:43:45;18.02;;;11.15;;
51883;SDS011;37915;53.254;6.598;2023-07-09T09:46:22;14.05;;;10.77;;
51883;SDS011;37915;53.254;6.598;2023-07-09T09:48:50;13.13;;;9.52;;
51883;SDS011;37915;53.254;6.598;2023-07-09T09:51:22;14.73;;;9.55;;
51883;SDS011;37915;53.254;6.598;2023-07-09T09:53:49;15.02;;;10.57;;
51883;SDS011;37915;53.254;6.598;2023-07-09T09:56:26;16.08;;;10.43;;
51883;SDS011;37915;53.254;6.598;2023-07-09T09:58:56;15.02;;;10.30;;
51883;SDS011;37915;53.254;6.598;2023-07-09T10:01:30;16.38;;;10.65;;
51883;SDS011;37915;53.254;6.598;2023-07-09T10:03:58;15.13;;;10.55;;
51883;SDS011;37915;53.254;6.598;2023-07-09T10:06:28;14.35;;;10.38;;
51883;SDS011;37915;53.254;6.598;2023-07-09T10:19:57;13.63;;;9.45;;
51883;SDS011;37915;53.254;6.598;2023-07-09T10:22:32;14.38;;;8.88;;
51883;SDS011;37915;53.254;6.598;2023-07-09T10:25:18;12.95;;;8.45;;
51883;SDS011;37915;53.254;6.598;2023-07-09T10:32:57;13.57;;;9.18;;
51883;SDS011;37915;53.254;6.598;2023-07-09T10:38:22;14.57;;;8.38;;
51883;SDS011;37915;53.254;6.598;2023-07-09T10:41:03;14.30;;;8.60;;
51883;SDS011;37915;53.254;6.598;2023-07-09T10:43:41;10.67;;;8.27;;
51883;SDS011;37915;53.254;6.598;2023-07-09T10:46:16;11.98;;;7.68;;
51883;SDS011;37915;53.254;6.598;2023-07-09T10:48:53;13.82;;;7.97;;
51883;SDS011;37915;53.254;6.598;2023-07-09T10:51:24;13.23;;;8.77;;
51883;SDS011;37915;53.254;6.598;2023-07-09T10:56:32;11.80;;;8.50;;
51883;SDS011;37915;53.254;6.598;2023-07-09T10:59:03;11.45;;;8.00;;
51883;SDS011;37915;53.254;6.598;2023-07-09T11:01:49;9.30;;;7.03;;
51883;SDS011;37915;53.254;6.598;2023-07-09T11:04:29;11.65;;;6.55;;
51883;SDS011;37915;53.254;6.598;2023-07-09T11:07:05;12.68;;;7.80;;
51883;SDS011;37915;53.254;6.598;2023-07-09T11:09:37;10.30;;;6.88;;
51883;SDS011;37915;53.254;6.598;2023-07-09T11:12:11;10.23;;;7.18;;
51883;SDS011;37915;53.254;6.598;2023-07-09T11:17:33;9.07;;;6.57;;
51883;SDS011;37915;53.254;6.598;2023-07-09T11:20:06;8.65;;;5.53;;
51883;SDS011;37915;53.254;6.598;2023-07-09T11:22:40;13.00;;;6.80;;
51883;SDS011;37915;53.254;6.598;2023-07-09T11:25:15;12.52;;;6.32;;
51883;SDS011;37915;53.254;6.598;2023-07-09T11:28:11;11.95;;;6.95;;
51883;SDS011;37915;53.254;6.598;2023-07-09T11:30:47;9.15;;;7.00;;
51883;SDS011;37915;53.254;6.598;2023-07-09T11:33:27;11.82;;;7.10;;
51883;SDS011;37915;53.254;6.598;2023-07-09T11:36:05;10.30;;;7.00;;
51883;SDS011;37915;53.254;6.598;2023-07-09T11:38:44;10.27;;;7.25;;
51883;SDS011;37915;53.254;6.598;2023-07-09T11:44:18;11.77;;;7.15;;
51883;SDS011;37915;53.254;6.598;2023-07-09T11:46:54;11.50;;;7.63;;
51883;SDS011;37915;53.254;6.598;2023-07-09T11:49:43;11.95;;;7.22;;
51883;SDS011;37915;53.254;6.598;2023-07-09T11:52:24;12.75;;;7.25;;
51883;SDS011;37915;53.254;6.598;2023-07-09T11:58:09;12.38;;;7.22;;
51883;SDS011;37915;53.254;6.598;2023-07-09T12:03:32;11.50;;;6.55;;
51883;SDS011;37915;53.254;6.598;2023-07-09T12:06:04;9.80;;;7.05;;
51883;SDS011;37915;53.254;6.598;2023-07-09T12:08:39;9.88;;;6.88;;
51883;SDS011;37915;53.254;6.598;2023-07-09T12:11:17;9.48;;;6.80;;
51883;SDS011;37915;53.254;6.598;2023-07-09T12:13:44;10.05;;;6.80;;
51883;SDS011;37915;53.254;6.598;2023-07-09T12:16:32;11.48;;;7.25;;
51883;SDS011;37915;53.254;6.598;2023-07-09T12:18:58;10.80;;;7.25;;
51883;SDS011;37915;53.254;6.598;2023-07-09T12:21:24;9.75;;;7.10;;
51883;SDS011;37915;53.254;6.598;2023-07-09T12:23:51;10.90;;;6.60;;
51883;SDS011;37915;53.254;6.598;2023-07-09T12:26:18;11.60;;;6.57;;
51883;SDS011;37915;53.254;6.598;2023-07-09T12:28:51;11.45;;;5.95;;
51883;SDS011;37915;53.254;6.598;2023-07-09T12:31:26;9.45;;;5.72;;
51883;SDS011;37915;53.254;6.598;2023-07-09T12:33:54;9.02;;;5.97;;
51883;SDS011;37915;53.254;6.598;2023-07-09T12:36:22;7.90;;;5.60;;
51883;SDS011;37915;53.254;6.598;2023-07-09T12:38:50;8.63;;;5.90;;
51883;SDS011;37915;53.254;6.598;2023-07-09T12:41:32;8.00;;;5.63;;
51883;SDS011;37915;53.254;6.598;2023-07-09T12:44:02;8.50;;;5.97;;
51883;SDS011;37915;53.254;6.598;2023-07-09T12:46:28;9.30;;;5.88;;
51883;SDS011;37915;53.254;6.598;2023-07-09T12:48:54;8.77;;;5.47;;
51883;SDS011;37915;53.254;6.598;2023-07-09T12:51:24;9.38;;;6.57;;
51883;SDS011;37915;53.254;6.598;2023-07-09T12:54:00;12.63;;;6.15;;
51883;SDS011;37915;53.254;6.598;2023-07-09T12:56:27;8.07;;;5.75;;
51883;SDS011;37915;53.254;6.598;2023-07-09T12:58:56;10.18;;;6.13;;
51883;SDS011;37915;53.254;6.598;2023-07-09T13:01:22;11.38;;;6.63;;
51883;SDS011;37915;53.254;6.598;2023-07-09T13:03:56;7.88;;;6.18;;
51883;SDS011;37915;53.254;6.598;2023-07-09T13:08:54;8.73;;;6.18;;
51883;SDS011;37915;53.254;6.598;2023-07-09T13:11:24;9.70;;;6.63;;
51883;SDS011;37915;53.254;6.598;2023-07-09T13:13:58;8.57;;;5.88;;
51883;SDS011;37915;53.254;6.598;2023-07-09T13:16:27;10.20;;;6.20;;
51883;SDS011;37915;53.254;6.598;2023-07-09T13:18:53;8.73;;;6.05;;
51883;SDS011;37915;53.254;6.598;2023-07-09T13:21:19;9.60;;;6.90;;
51883;SDS011;37915;53.254;6.598;2023-07-09T13:23:47;10.52;;;6.22;;
51883;SDS011;37915;53.254;6.598;2023-07-09T13:26:14;9.70;;;5.60;;
51883;SDS011;37915;53.254;6.598;2023-07-09T13:28:41;9.63;;;5.90;;
51883;SDS011;37915;53.254;6.598;2023-07-09T13:31:09;8.68;;;5.80;;
51883;SDS011;37915;53.254;6.598;2023-07-09T13:33:43;10.48;;;6.10;;
51883;SDS011;37915;53.254;6.598;2023-07-09T13:36:14;9.60;;;5.82;;
51883;SDS011;37915;53.254;6.598;2023-07-09T13:38:40;10.25;;;5.93;;
51883;SDS011;37915;53.254;6.598;2023-07-09T13:41:13;18.02;;;6.30;;
51883;SDS011;37915;53.254;6.598;2023-07-09T13:43:47;11.30;;;6.55;;
51883;SDS011;37915;53.254;6.598;2023-07-09T13:46:13;8.68;;;5.80;;
51883;SDS011;37915;53.254;6.598;2023-07-09T13:48:41;8.55;;;5.70;;
51883;SDS011;37915;53.254;6.598;2023-07-09T13:51:14;8.77;;;5.93;;
51883;SDS011;37915;53.254;6.598;2023-07-09T13:53:42;9.10;;;6.20;;
51883;SDS011;37915;53.254;6.598;2023-07-09T13:56:08;7.50;;;5.82;;
51883;SDS011;37915;53.254;6.598;2023-07-09T13:58:33;9.82;;;6.43;;
51883;SDS011;37915;53.254;6.598;2023-07-09T14:01:01;10.82;;;6.80;;
51883;SDS011;37915;53.254;6.598;2023-07-09T14:03:36;9.98;;;6.75;;
51883;SDS011;37915;53.254;6.598;2023-07-09T14:06:04;11.80;;;6.43;;
51883;SDS011;37915;53.254;6.598;2023-07-09T14:08:30;7.85;;;5.65;;
51883;SDS011;37915;53.254;6.598;2023-07-09T14:10:55;8.50;;;5.72;;
51883;SDS011;37915;53.254;6.598;2023-07-09T14:13:21;10.13;;;6.13;;
51883;SDS011;37915;53.254;6.598;2023-07-09T14:15:49;8.43;;;5.85;;
51883;SDS011;37915;53.254;6.598;2023-07-09T14:18:16;11.82;;;5.65;;
51883;SDS011;37915;53.254;6.598;2023-07-09T14:20:43;10.85;;;5.90;;
51883;SDS011;37915;53.254;6.598;2023-07-09T14:23:13;10.40;;;6.10;;
51883;SDS011;37915;53.254;6.598;2023-07-09T14:25:41;8.70;;;6.65;;
51883;SDS011;37915;53.254;6.598;2023-07-09T14:28:15;9.18;;;6.10;;
51883;SDS011;37915;53.254;6.598;2023-07-09T14:30:43;7.72;;;5.93;;
51883;SDS011;37915;53.254;6.598;2023-07-09T14:33:13;13.50;;;5.55;;
51883;SDS011;37915;53.254;6.598;2023-07-09T14:35:40;9.35;;;5.65;;
51883;SDS011;37915;53.254;6.598;2023-07-09T14:38:25;9.30;;;5.53;;
51883;SDS011;37915;53.254;6.598;2023-07-09T14:40:51;9.85;;;5.93;;
51883;SDS011;37915;53.254;6.598;2023-07-09T14:43:20;11.02;;;5.80;;
51883;SDS011;37915;53.254;6.598;2023-07-09T14:45:46;9.75;;;6.20;;
51883;SDS011;37915;53.254;6.598;2023-07-09T14:48:13;9.75;;;6.00;;
51883;SDS011;37915;53.254;6.598;2023-07-09T14:50:41;10.75;;;6.55;;
51883;SDS011;37915;53.254;6.598;2023-07-09T14:53:26;10.43;;;6.38;;
51883;SDS011;37915;53.254;6.598;2023-07-09T14:55:55;13.57;;;6.38;;
51883;SDS011;37915;53.254;6.598;2023-07-09T14:58:22;11.35;;;6.50;;
51883;SDS011;37915;53.254;6.598;2023-07-09T15:00:48;10.43;;;7.00;;
51883;SDS011;37915;53.254;6.598;2023-07-09T15:03:17;12.05;;;7.07;;
51883;SDS011;37915;53.254;6.598;2023-07-09T15:05:45;10.60;;;6.75;;
51883;SDS011;37915;53.254;6.598;2023-07-09T15:08:16;12.60;;;6.43;;
51883;SDS011;37915;53.254;6.598;2023-07-09T15:10:49;12.10;;;8.13;;
51883;SDS011;37915;53.254;6.598;2023-07-09T15:13:18;13.10;;;8.20;;
51883;SDS011;37915;53.254;6.598;2023-07-09T15:15:43;14.52;;;8.77;;
51883;SDS011;37915;53.254;6.598;2023-07-09T15:18:14;13.50;;;8.40;;
51883;SDS011;37915;53.254;6.598;2023-07-09T15:20:43;14.90;;;11.98;;
51883;SDS011;37915;53.254;6.598;2023-07-09T15:23:21;17.23;;;11.98;;
51883;SDS011;37915;53.254;6.598;2023-07-09T15:25:47;16.10;;;11.05;;
51883;SDS011;37915;53.254;6.598;2023-07-09T15:28:14;17.85;;;10.75;;
51883;SDS011;37915;53.254;6.598;2023-07-09T15:30:40;15.25;;;10.13;;